Time;durP1;ratioP1;P1;durP2;ratioP2;P2;SDS_P1;SDS_P2;PMS_P1;PMS_P2;Temp;Humidity;BMP_temperature;BMP_pressure;BME280_temperature;BME280_humidity;BME280_pressure;Samples;Min_cycle;Max_cycle;Signal;HPM_P1;HPM_P2
2021/12/21 00:02:13;;;;;;;;;;;22.00;50.00;;;;;;5043276;28;19916;-65
2021/12/21 00:04:38;;;;;;;;;;;22.00;49.90;;;;;;5042414;28;19968;-67
2021/12/21 00:07:05;;;;;;;;;;;22.00;49.90;;;;;;5042338;28;20345;-65
2021/12/21 00:09:31;;;;;;;;;;;21.90;49.90;;;;;;5042413;28;20008;-67
2021/12/21 00:11:58;;;;;;;;;;;21.90;49.90;;;;;;5043350;28;20034;-64
2021/12/21 00:14:40;;;;;;;;;;;21.90;50.00;;;;;;5042567;28;19920;-66
2021/12/21 00:17:13;;;;;;;;;;;21.90;49.90;;;;;;5040491;28;19920;-64
2021/12/21 00:20:05;;;;;;;;;;;21.90;49.90;;;;;;5044406;28;19939;-65
2021/12/21 00:25:08;;;;;;;;;;;21.80;49.90;;;;;;5041724;28;19913;-65
2021/12/21 00:27:33;;;;;;;;;;;21.90;49.90;;;;;;5043755;28;20285;-67
2021/12/21 00:29:59;;;;;;;;;;;21.80;50.00;;;;;;5045436;28;19919;-66
2021/12/21 00:32:24;;;;;;;;;;;21.80;49.90;;;;;;5040887;28;19924;-64
2021/12/21 00:34:50;;;;;;;;;;;21.80;50.00;;;;;;5042377;28;19936;-65
2021/12/21 00:37:18;;;;;;;;;;;21.80;49.90;;;;;;5040090;28;19916;-61
2021/12/21 00:39:44;;;;;;;;;;;21.80;50.00;;;;;;5045639;28;19967;-61
2021/12/21 00:42:09;;;;;;;;;;;21.70;49.90;;;;;;5042495;28;19951;-65
2021/12/21 00:44:34;;;;;;;;;;;21.70;49.90;;;;;;5045026;28;20333;-63
2021/12/21 00:47:00;;;;;;;;;;;21.70;49.90;;;;;;5043035;28;19913;-67
2021/12/21 00:49:27;;;;;;;;;;;21.70;49.90;;;;;;5042429;28;20515;-63
2021/12/21 00:51:52;;;;;;;;;;;21.70;49.90;;;;;;5039485;28;20361;-63
2021/12/21 00:54:18;;;;;;;;;;;21.70;49.90;;;;;;5044624;28;20015;-67
2021/12/21 00:56:43;;;;;;;;;;;21.60;49.90;;;;;;5039445;28;19913;-65
2021/12/21 00:59:09;;;;;;;;;;;21.60;50.50;;;;;;5043818;28;20598;-65
2021/12/21 01:01:35;;;;;;;;;;;21.60;50.00;;;;;;5039682;28;19921;-66
2021/12/21 01:04:03;;;;;;;;;;;21.60;50.00;;;;;;5043936;28;19939;-68
2021/12/21 01:06:42;;;;;;;;;;;21.50;50.00;;;;;;5040448;28;19913;-65
2021/12/21 01:11:41;;;;;;;;;;;21.50;50.00;;;;;;5043618;28;19974;-64
2021/12/21 01:19:40;;;;;;;;;;;21.50;50.10;;;;;;5043220;28;19913;-67
2021/12/21 01:22:17;;;;;;;;;;;21.50;50.10;;;;;;5037697;28;19917;-63
2021/12/21 01:35:10;;;;;;;;;;;21.40;50.10;;;;;;5044496;28;19912;-67
2021/12/21 01:40:33;;;;;;;;;;;21.40;50.20;;;;;;5041304;28;19921;-65
2021/12/21 01:51:12;;;;;;;;;;;21.30;50.10;;;;;;5039595;28;20042;-63
2021/12/21 01:53:38;;;;;;;;;;;21.30;50.20;;;;;;5041867;28;20035;-67
2021/12/21 01:56:05;;;;;;;;;;;21.30;50.20;;;;;;5042919;28;20742;-61
2021/12/21 01:58:30;;;;;;;;;;;21.30;50.20;;;;;;5045296;28;20587;-62
2021/12/21 02:00:56;;;;;;;;;;;21.20;50.10;;;;;;5040290;28;20048;-63
2021/12/21 02:03:21;;;;;;;;;;;21.20;50.10;;;;;;5037034;28;19986;-62
2021/12/21 02:05:47;;;;;;;;;;;21.30;50.20;;;;;;5042681;28;19931;-67
2021/12/21 02:08:13;;;;;;;;;;;21.20;50.20;;;;;;5041198;28;19935;-63
2021/12/21 02:10:39;;;;;;;;;;;21.20;50.20;;;;;;5044159;28;19987;-64
2021/12/21 02:13:04;;;;;;;;;;;21.20;50.20;;;;;;5041675;28;19970;-64
2021/12/21 02:15:30;;;;;;;;;;;21.20;50.20;;;;;;5044111;28;19958;-65
2021/12/21 02:19:02;;;;;;;;;;;21.20;50.20;;;;;;5037739;28;19919;-62
2021/12/21 02:20:56;;;;;;;;;;;21.20;50.20;;;;;;5033758;28;19912;-61
2021/12/21 02:23:43;;;;;;;;;;;21.20;50.20;;;;;;5040647;28;19939;-64
2021/12/21 02:31:07;;;;;;;;;;;21.10;50.20;;;;;;5044776;28;19946;-66
2021/12/21 02:33:34;;;;;;;;;;;21.10;50.20;;;;;;5045287;28;20336;-64
2021/12/21 02:36:00;;;;;;;;;;;21.10;50.20;;;;;;5044452;28;19913;-63
2021/12/21 02:38:26;;;;;;;;;;;21.10;50.20;;;;;;5045768;28;19908;-62
2021/12/21 02:40:52;;;;;;;;;;;21.10;50.20;;;;;;5045778;28;19912;-64
2021/12/21 02:43:18;;;;;;;;;;;21.10;50.20;;;;;;5041747;28;19916;-64
2021/12/21 02:45:43;;;;;;;;;;;21.10;50.20;;;;;;5044468;28;19921;-62
2021/12/21 02:48:09;;;;;;;;;;;21.10;50.20;;;;;;5047989;28;19958;-61
2021/12/21 02:50:38;;;;;;;;;;;21.10;50.20;;;;;;5043944;28;19916;-64
2021/12/21 02:53:04;;;;;;;;;;;21.10;50.20;;;;;;5043665;28;19909;-67
2021/12/21 02:55:30;;;;;;;;;;;21.10;50.20;;;;;;5046986;28;20272;-64
2021/12/21 02:57:57;;;;;;;;;;;21.00;50.50;;;;;;5047277;28;19909;-64
2021/12/21 03:00:23;;;;;;;;;;;21.00;50.20;;;;;;5041534;28;20425;-67
2021/12/21 03:02:49;;;;;;;;;;;21.00;50.20;;;;;;5044108;28;19944;-62
2021/12/21 03:05:14;;;;;;;;;;;21.00;50.30;;;;;;5041039;28;19956;-65
2021/12/21 03:10:58;;;;;;;;;;;21.00;50.30;;;;;;4996331;28;19921;-62
2021/12/21 03:16:07;;;;;;;;;;;20.90;50.30;;;;;;5045246;28;20004;-66
2021/12/21 03:18:33;;;;;;;;;;;20.90;50.30;;;;;;5044183;28;19999;-62
2021/12/21 03:20:58;;;;;;;;;;;20.90;50.30;;;;;;5042743;28;19913;-63
2021/12/21 03:23:23;;;;;;;;;;;20.90;50.40;;;;;;5042816;28;19916;-68
2021/12/21 03:25:49;;;;;;;;;;;20.90;50.30;;;;;;5042780;28;19940;-69
2021/12/21 03:28:14;;;;;;;;;;;20.90;50.30;;;;;;5046947;28;20123;-69
2021/12/21 03:30:40;;;;;;;;;;;20.90;50.40;;;;;;5038458;28;19913;-63
2021/12/21 03:33:05;;;;;;;;;;;20.90;50.30;;;;;;5047198;28;19912;-68
2021/12/21 03:35:31;;;;;;;;;;;20.80;50.30;;;;;;5041599;28;19916;-69
2021/12/21 03:37:57;;;;;;;;;;;20.90;50.40;;;;;;5041005;28;19947;-64
2021/12/21 03:40:22;;;;;;;;;;;20.80;50.40;;;;;;5043523;28;20004;-66
2021/12/21 03:42:48;;;;;;;;;;;20.80;50.40;;;;;;5043648;28;20000;-64
2021/12/21 03:45:14;;;;;;;;;;;20.80;50.40;;;;;;5046929;28;20000;-67
2021/12/21 03:47:39;;;;;;;;;;;20.80;50.40;;;;;;5043466;28;19959;-62
2021/12/21 03:50:12;;;;;;;;;;;20.80;50.40;;;;;;5043892;28;19917;-64
2021/12/21 03:52:38;;;;;;;;;;;20.80;50.40;;;;;;5043256;28;19913;-63
2021/12/21 03:55:04;;;;;;;;;;;20.80;50.40;;;;;;5045742;28;19923;-65
2021/12/21 03:57:30;;;;;;;;;;;20.80;50.40;;;;;;5042476;28;19919;-64
2021/12/21 03:59:56;;;;;;;;;;;20.80;50.50;;;;;;5043376;28;19931;-65
2021/12/21 04:02:24;;;;;;;;;;;20.80;50.40;;;;;;5046348;28;19912;-63
2021/12/21 04:04:49;;;;;;;;;;;20.80;50.40;;;;;;5043776;28;20699;-64
2021/12/21 04:07:15;;;;;;;;;;;20.80;50.40;;;;;;5042345;28;19950;-69
2021/12/21 04:09:41;;;;;;;;;;;20.70;50.40;;;;;;5042654;28;19909;-64
2021/12/21 04:12:06;;;;;;;;;;;20.70;50.40;;;;;;5045541;28;19913;-62
2021/12/21 04:14:33;;;;;;;;;;;20.70;50.40;;;;;;5045331;28;19909;-68
2021/12/21 04:16:59;;;;;;;;;;;20.70;50.50;;;;;;5043210;28;19947;-62
2021/12/21 04:19:25;;;;;;;;;;;20.70;50.50;;;;;;5044143;28;20693;-64
2021/12/21 04:21:50;;;;;;;;;;;20.70;50.50;;;;;;5041902;28;19908;-64
2021/12/21 04:24:16;;;;;;;;;;;20.70;50.50;;;;;;5037610;28;19931;-65
2021/12/21 04:26:41;;;;;;;;;;;20.70;50.50;;;;;;5042478;28;20398;-64
2021/12/21 04:29:07;;;;;;;;;;;20.70;51.10;;;;;;5044996;28;19909;-62
2021/12/21 04:31:33;;;;;;;;;;;20.70;50.60;;;;;;5045170;28;19951;-67
2021/12/21 04:33:59;;;;;;;;;;;20.70;50.70;;;;;;5043405;28;19954;-64
2021/12/21 04:36:25;;;;;;;;;;;20.70;50.70;;;;;;5039310;28;19913;-64
2021/12/21 04:38:51;;;;;;;;;;;20.70;50.70;;;;;;5043098;28;19920;-64
2021/12/21 04:41:26;;;;;;;;;;;20.70;50.70;;;;;;5041902;28;20512;-63
2021/12/21 04:43:52;;;;;;;;;;;20.60;50.70;;;;;;5041598;28;20356;-62
2021/12/21 04:46:18;;;;;;;;;;;20.60;50.70;;;;;;5042643;28;19952;-68
2021/12/21 04:48:43;;;;;;;;;;;20.60;50.70;;;;;;5044787;28;19917;-63
2021/12/21 04:51:09;;;;;;;;;;;20.60;50.70;;;;;;5041548;28;19955;-66
2021/12/21 04:53:34;;;;;;;;;;;20.60;50.80;;;;;;5038688;28;20486;-63
2021/12/21 04:56:02;;;;;;;;;;;20.60;50.80;;;;;;5041530;28;19932;-64
2021/12/21 04:58:28;;;;;;;;;;;20.60;50.80;;;;;;5043197;28;19939;-64
2021/12/21 05:00:53;;;;;;;;;;;20.60;50.80;;;;;;5040786;28;20587;-69
2021/12/21 05:03:19;;;;;;;;;;;20.60;50.90;;;;;;5040909;28;19919;-61
2021/12/21 05:05:44;;;;;;;;;;;20.60;50.90;;;;;;5043143;28;20205;-61
2021/12/21 05:08:13;;;;;;;;;;;20.60;50.90;;;;;;5038921;28;19909;-62
2021/12/21 05:10:49;;;;;;;;;;;20.60;51.00;;;;;;5035974;28;19921;-61
2021/12/21 05:13:15;;;;;;;;;;;20.60;51.00;;;;;;5042671;28;19913;-62
2021/12/21 05:15:41;;;;;;;;;;;20.60;51.00;;;;;;5040615;28;19912;-67
2021/12/21 05:18:07;;;;;;;;;;;20.60;51.10;;;;;;5038873;28;19909;-63
2021/12/21 05:20:32;;;;;;;;;;;20.60;51.10;;;;;;5038279;28;19920;-63
2021/12/21 05:22:58;;;;;;;;;;;20.60;51.10;;;;;;5037355;28;19909;-63
2021/12/21 05:25:23;;;;;;;;;;;20.60;51.10;;;;;;5040418;28;19923;-64
2021/12/21 05:27:49;;;;;;;;;;;20.50;51.10;;;;;;5045522;28;20321;-63
2021/12/21 05:30:15;;;;;;;;;;;20.50;51.10;;;;;;5042373;28;19917;-63
2021/12/21 05:32:40;;;;;;;;;;;20.50;51.10;;;;;;5038393;28;19944;-63
2021/12/21 05:35:06;;;;;;;;;;;20.50;51.10;;;;;;5041688;28;19943;-65
2021/12/21 05:37:32;;;;;;;;;;;20.50;51.20;;;;;;5040030;28;20007;-63
2021/12/21 05:40:09;;;;;;;;;;;20.50;51.20;;;;;;5040020;28;20074;-63
2021/12/21 05:42:35;;;;;;;;;;;20.50;51.20;;;;;;5042686;28;19996;-63
2021/12/21 05:45:01;;;;;;;;;;;20.50;51.20;;;;;;5042573;28;19908;-64
2021/12/21 05:47:26;;;;;;;;;;;20.50;51.20;;;;;;5041153;28;19970;-62
2021/12/21 05:49:52;;;;;;;;;;;20.50;51.20;;;;;;5043918;28;20419;-62
2021/12/21 05:52:17;;;;;;;;;;;20.50;51.20;;;;;;5040082;28;19931;-67
2021/12/21 05:54:43;;;;;;;;;;;20.50;51.20;;;;;;5043183;28;19936;-64
2021/12/21 05:57:08;;;;;;;;;;;20.40;51.20;;;;;;5043089;28;20664;-67
2021/12/21 05:59:34;;;;;;;;;;;20.50;51.30;;;;;;5043760;28;19999;-65
2021/12/21 06:01:59;;;;;;;;;;;20.40;51.30;;;;;;5046888;28;19960;-63
2021/12/21 06:04:25;;;;;;;;;;;20.40;51.30;;;;;;5047085;28;20795;-63
2021/12/21 06:06:51;;;;;;;;;;;20.50;51.30;;;;;;5040282;28;19961;-63
2021/12/21 06:09:17;;;;;;;;;;;20.50;51.40;;;;;;5039867;28;19912;-66
2021/12/21 06:11:54;;;;;;;;;;;20.50;51.40;;;;;;5045524;28;19909;-67
2021/12/21 06:27:48;;;;;;;;;;;21.20;52.60;;;;;;5040663;28;19917;-63
2021/12/21 06:30:14;;;;;;;;;;;21.30;52.40;;;;;;5048488;28;19908;-63
2021/12/21 06:32:40;;;;;;;;;;;21.50;52.40;;;;;;5046173;28;19924;-62
2021/12/21 06:35:06;;;;;;;;;;;21.60;52.30;;;;;;5043222;28;19920;-63
2021/12/21 06:37:31;;;;;;;;;;;21.80;52.40;;;;;;5040796;28;19909;-63
2021/12/21 06:39:57;;;;;;;;;;;21.90;52.30;;;;;;5046270;28;19916;-64
2021/12/21 06:42:23;;;;;;;;;;;22.10;52.20;;;;;;5046410;28;19913;-66
2021/12/21 06:44:54;;;;;;;;;;;22.30;52.00;;;;;;5043586;28;20387;-67
2021/12/21 06:52:49;;;;;;;;;;;22.80;51.60;;;;;;5039917;28;19930;-67
2021/12/21 06:55:15;;;;;;;;;;;23.00;51.40;;;;;;5040055;28;19913;-67
2021/12/21 06:57:43;;;;;;;;;;;23.10;51.10;;;;;;5046397;28;19924;-63
2021/12/21 07:00:12;;;;;;;;;;;23.40;50.90;;;;;;5042028;28;19932;-63
2021/12/21 07:02:37;;;;;;;;;;;23.30;50.70;;;;;;5040837;28;19920;-65
2021/12/21 07:05:03;;;;;;;;;;;23.20;50.80;;;;;;5046835;28;20230;-64
2021/12/21 07:07:29;;;;;;;;;;;23.10;50.90;;;;;;5043306;28;19935;-63
2021/12/21 07:10:00;;;;;;;;;;;23.00;51.10;;;;;;5043193;28;20567;-62
2021/12/21 07:18:00;;;;;;;;;;;23.00;51.20;;;;;;5043336;28;19912;-63
2021/12/21 07:20:33;;;;;;;;;;;22.90;51.40;;;;;;5041674;28;20296;-67
2021/12/21 07:22:59;;;;;;;;;;;22.90;51.50;;;;;;5043889;28;19913;-63
2021/12/21 07:25:27;;;;;;;;;;;22.90;51.30;;;;;;5048018;28;19928;-62
2021/12/21 07:27:53;;;;;;;;;;;22.90;51.30;;;;;;5042685;28;20280;-63
2021/12/21 07:30:18;;;;;;;;;;;22.90;51.40;;;;;;5045377;28;19939;-65
2021/12/21 07:32:44;;;;;;;;;;;23.00;51.50;;;;;;5043757;28;19916;-63
2021/12/21 07:35:09;;;;;;;;;;;22.90;51.20;;;;;;5043569;28;20625;-67
2021/12/21 07:37:35;;;;;;;;;;;23.00;51.40;;;;;;5039331;28;19917;-64
2021/12/21 07:40:02;;;;;;;;;;;23.00;51.50;;;;;;5040526;28;19928;-67
2021/12/21 07:42:28;;;;;;;;;;;23.00;51.40;;;;;;5044855;28;20323;-62
2021/12/21 07:44:53;;;;;;;;;;;23.00;51.30;;;;;;5044355;28;19920;-67
2021/12/21 07:47:19;;;;;;;;;;;23.00;51.20;;;;;;5041477;28;19954;-64
2021/12/21 07:49:44;;;;;;;;;;;23.00;51.20;;;;;;5045474;28;19919;-63
2021/12/21 07:52:10;;;;;;;;;;;23.00;51.50;;;;;;5038452;28;19919;-63
2021/12/21 07:54:36;;;;;;;;;;;23.00;51.40;;;;;;5046393;28;19979;-63
2021/12/21 07:57:02;;;;;;;;;;;23.10;51.40;;;;;;5039936;28;19921;-63
2021/12/21 07:59:27;;;;;;;;;;;23.10;51.50;;;;;;5045412;28;19917;-66
2021/12/21 08:01:53;;;;;;;;;;;23.10;51.50;;;;;;5041728;28;19985;-63
2021/12/21 08:04:21;;;;;;;;;;;23.10;51.70;;;;;;5042744;28;19961;-64
2021/12/21 08:06:49;;;;;;;;;;;23.20;51.90;;;;;;5041607;28;19913;-65
2021/12/21 08:09:14;;;;;;;;;;;23.20;52.50;;;;;;5046944;28;20414;-63
2021/12/21 08:14:06;;;;;;;;;;;23.20;49.80;;;;;;5045771;28;19916;-63
2021/12/21 08:16:31;;;;;;;;;;;23.10;49.70;;;;;;5042966;28;19966;-66
2021/12/21 08:18:57;;;;;;;;;;;23.20;49.50;;;;;;5044542;28;19966;-63
2021/12/21 08:21:25;;;;;;;;;;;23.10;48.60;;;;;;5039129;28;19939;-62
2021/12/21 08:23:50;;;;;;;;;;;23.10;48.70;;;;;;5043368;28;19912;-63
2021/12/21 08:26:16;;;;;;;;;;;23.10;48.40;;;;;;5044637;28;19923;-63
2021/12/21 08:28:42;;;;;;;;;;;23.00;48.60;;;;;;5039450;28;20125;-62
2021/12/21 08:31:10;;;;;;;;;;;23.00;48.70;;;;;;5043160;28;19948;-63
2021/12/21 08:33:36;;;;;;;;;;;23.00;48.20;;;;;;5044369;28;20137;-63
2021/12/21 08:36:02;;;;;;;;;;;22.90;48.10;;;;;;5040109;28;20016;-65
2021/12/21 08:38:30;;;;;;;;;;;23.00;48.10;;;;;;5040689;28;20429;-63
2021/12/21 08:40:58;;;;;;;;;;;22.90;48.10;;;;;;5045741;28;19912;-63
2021/12/21 08:43:25;;;;;;;;;;;22.90;48.30;;;;;;5044977;28;20364;-66
2021/12/21 08:45:52;;;;;;;;;;;22.90;48.30;;;;;;5042164;28;19924;-63
2021/12/21 08:48:18;;;;;;;;;;;22.90;48.20;;;;;;5043536;28;19942;-64
2021/12/21 08:50:45;;;;;;;;;;;22.90;48.30;;;;;;5043843;28;19915;-63
2021/12/21 08:53:12;;;;;;;;;;;22.80;48.20;;;;;;5041577;28;19935;-61
2021/12/21 08:55:38;;;;;;;;;;;22.80;48.40;;;;;;5045592;28;20027;-63
2021/12/21 08:58:04;;;;;;;;;;;22.90;48.50;;;;;;5041617;28;19948;-62
2021/12/21 09:00:29;;;;;;;;;;;22.90;48.30;;;;;;5040048;28;20318;-64
2021/12/21 09:02:55;;;;;;;;;;;22.80;48.40;;;;;;5041604;28;19917;-63
2021/12/21 09:05:26;;;;;;;;;;;22.80;48.50;;;;;;5040802;28;19932;-67
2021/12/21 09:07:52;;;;;;;;;;;22.90;48.90;;;;;;5037849;28;20029;-65
2021/12/21 09:10:18;;;;;;;;;;;22.90;48.60;;;;;;5038747;28;19967;-63
2021/12/21 09:12:44;;;;;;;;;;;22.80;48.50;;;;;;5040282;28;19917;-67
2021/12/21 09:15:10;;;;;;;;;;;22.80;49.00;;;;;;5036952;28;20373;-62
2021/12/21 09:17:35;;;;;;;;;;;22.80;48.80;;;;;;5037502;28;19947;-63
2021/12/21 09:20:02;;;;;;;;;;;22.80;49.10;;;;;;5041593;28;19995;-64
2021/12/21 09:22:28;;;;;;;;;;;22.80;49.00;;;;;;5040037;28;19917;-64
2021/12/21 09:24:53;;;;;;;;;;;22.80;49.00;;;;;;5042070;28;20232;-64
2021/12/21 09:27:19;;;;;;;;;;;22.80;48.90;;;;;;5044925;28;20020;-64
2021/12/21 09:29:45;;;;;;;;;;;22.80;48.90;;;;;;5041359;28;20019;-63
2021/12/21 09:32:13;;;;;;;;;;;22.80;49.00;;;;;;5038196;28;20290;-67
2021/12/21 09:34:42;;;;;;;;;;;22.80;49.00;;;;;;5044433;28;19920;-66
2021/12/21 09:37:14;;;;;;;;;;;22.80;49.10;;;;;;5036832;28;20390;-67
2021/12/21 09:39:40;;;;;;;;;;;22.80;49.40;;;;;;5043168;28;19920;-63
2021/12/21 09:42:06;;;;;;;;;;;22.80;49.30;;;;;;5051665;28;19912;-65
2021/12/21 09:44:31;;;;;;;;;;;22.80;49.30;;;;;;5056303;28;20337;-65
2021/12/21 09:46:57;;;;;;;;;;;22.80;49.30;;;;;;5052294;28;19913;-67
2021/12/21 09:49:22;;;;;;;;;;;22.80;49.10;;;;;;5047832;28;19915;-67
2021/12/21 09:51:48;;;;;;;;;;;22.80;49.10;;;;;;5047472;28;19979;-64
2021/12/21 09:54:18;;;;;;;;;;;22.80;49.10;;;;;;5049932;28;19909;-65
2021/12/21 09:56:44;;;;;;;;;;;22.80;49.10;;;;;;5050876;28;19909;-67
2021/12/21 09:59:09;;;;;;;;;;;22.80;49.10;;;;;;5050025;28;19924;-64
2021/12/21 10:01:35;;;;;;;;;;;22.70;49.10;;;;;;5050432;28;19938;-64
2021/12/21 10:04:00;;;;;;;;;;;22.80;49.10;;;;;;5052266;28;19913;-65
2021/12/21 10:06:26;;;;;;;;;;;22.70;49.10;;;;;;5047806;28;19916;-64
2021/12/21 10:08:51;;;;;;;;;;;22.70;49.10;;;;;;5040645;28;19911;-63
2021/12/21 10:11:18;;;;;;;;;;;22.70;49.10;;;;;;5047133;28;19913;-65
2021/12/21 10:13:44;;;;;;;;;;;22.80;49.20;;;;;;5047454;28;19916;-65
2021/12/21 10:16:10;;;;;;;;;;;22.80;49.20;;;;;;5039985;28;20393;-65
2021/12/21 10:18:41;;;;;;;;;;;22.80;49.30;;;;;;5045572;28;19909;-64
2021/12/21 10:21:12;;;;;;;;;;;22.70;49.30;;;;;;5036353;28;19912;-65
2021/12/21 10:23:39;;;;;;;;;;;22.70;49.20;;;;;;5043061;28;19916;-64
2021/12/21 10:26:10;;;;;;;;;;;22.70;49.20;;;;;;5042547;28;19920;-64
2021/12/21 10:28:40;;;;;;;;;;;22.70;49.10;;;;;;5042438;28;20368;-63
2021/12/21 10:31:08;;;;;;;;;;;22.70;49.10;;;;;;5043263;28;20325;-64
2021/12/21 10:33:34;;;;;;;;;;;22.70;49.10;;;;;;5038500;28;19909;-64
2021/12/21 10:36:00;;;;;;;;;;;22.70;49.10;;;;;;5037393;28;19920;-64
2021/12/21 10:38:27;;;;;;;;;;;22.70;49.00;;;;;;5039238;28;19986;-66
2021/12/21 10:40:53;;;;;;;;;;;22.70;49.10;;;;;;5041528;28;19955;-67
2021/12/21 10:43:18;;;;;;;;;;;22.70;49.00;;;;;;5043008;28;19963;-67
2021/12/21 10:45:44;;;;;;;;;;;22.60;49.00;;;;;;5045977;28;19912;-67
2021/12/21 10:48:22;;;;;;;;;;;22.60;49.00;;;;;;5043185;28;19920;-63
2021/12/21 10:50:48;;;;;;;;;;;22.70;49.10;;;;;;5037450;28;19918;-66
2021/12/21 10:53:20;;;;;;;;;;;22.60;49.00;;;;;;5041051;28;20473;-67
2021/12/21 10:55:46;;;;;;;;;;;22.60;49.60;;;;;;5038406;28;20291;-64
2021/12/21 10:58:15;;;;;;;;;;;22.70;49.20;;;;;;5039445;28;19916;-66
2021/12/21 11:00:46;;;;;;;;;;;22.70;49.10;;;;;;5042735;28;19917;-66
2021/12/21 11:03:16;;;;;;;;;;;22.70;49.10;;;;;;5040229;28;20349;-64
2021/12/21 11:05:42;;;;;;;;;;;22.70;49.20;;;;;;5042326;28;20849;-66
2021/12/21 11:08:16;;;;;;;;;;;22.70;49.30;;;;;;5042401;28;20173;-68
2021/12/21 11:10:48;;;;;;;;;;;22.70;49.30;;;;;;5043861;28;22051;-69
2021/12/21 11:13:15;;;;;;;;;;;22.60;49.20;;;;;;5041931;28;19913;-66
2021/12/21 11:15:42;;;;;;;;;;;22.70;49.20;;;;;;5040519;28;19919;-67
2021/12/21 11:18:07;;;;;;;;;;;22.70;49.30;;;;;;5033861;28;19917;-68
2021/12/21 11:20:35;;;;;;;;;;;22.60;49.30;;;;;;5042782;28;19913;-66
2021/12/21 11:23:01;;;;;;;;;;;22.60;49.20;;;;;;5036284;28;19913;-68
2021/12/21 11:25:27;;;;;;;;;;;22.60;49.20;;;;;;5044525;28;19936;-68
2021/12/21 11:27:53;;;;;;;;;;;22.60;49.20;;;;;;5054456;28;19912;-66
2021/12/21 11:30:20;;;;;;;;;;;22.70;49.10;;;;;;5047692;28;19913;-67
2021/12/21 11:32:49;;;;;;;;;;;22.70;49.10;;;;;;5049978;28;19966;-66
2021/12/21 11:37:46;;;;;;;;;;;22.60;49.60;;;;;;5047031;28;20000;-65
2021/12/21 11:40:14;;;;;;;;;;;22.70;49.10;;;;;;5050819;28;19958;-68
2021/12/21 11:42:51;;;;;;;;;;;22.70;49.10;;;;;;5048583;28;19917;-68
2021/12/21 11:45:20;;;;;;;;;;;22.70;49.10;;;;;;5052169;28;19913;-66
2021/12/21 11:48:05;;;;;;;;;;;22.70;49.20;;;;;;5056304;28;19917;-67
2021/12/21 11:50:30;;;;;;;;;;;22.70;49.20;;;;;;5050405;28;19916;-66
2021/12/21 11:53:01;;;;;;;;;;;22.70;49.20;;;;;;5054411;28;19928;-65
2021/12/21 11:55:27;;;;;;;;;;;22.70;49.30;;;;;;5054828;28;19917;-65
2021/12/21 11:57:54;;;;;;;;;;;22.70;49.30;;;;;;5054259;28;19950;-64
2021/12/21 12:00:28;;;;;;;;;;;22.70;49.20;;;;;;5051777;28;19912;-64
2021/12/21 12:02:54;;;;;;;;;;;22.70;49.20;;;;;;5044036;28;19959;-65
2021/12/21 12:05:20;;;;;;;;;;;22.80;49.20;;;;;;5038355;28;20332;-65
2021/12/21 12:07:46;;;;;;;;;;;22.80;49.10;;;;;;5041151;28;19919;-65
2021/12/21 12:10:15;;;;;;;;;;;22.80;49.20;;;;;;5057502;28;19913;-64
2021/12/21 12:12:41;;;;;;;;;;;22.70;49.10;;;;;;5055394;28;19956;-67
2021/12/21 12:15:07;;;;;;;;;;;22.70;49.20;;;;;;5053879;28;19931;-66
2021/12/21 12:17:43;;;;;;;;;;;22.70;49.10;;;;;;5054968;28;19924;-67
2021/12/21 12:20:09;;;;;;;;;;;22.80;49.30;;;;;;5047016;28;20420;-66
2021/12/21 12:22:37;;;;;;;;;;;22.80;49.30;;;;;;5045916;28;20415;-67
2021/12/21 12:25:03;;;;;;;;;;;22.80;49.20;;;;;;5042834;28;19916;-66
2021/12/21 12:27:29;;;;;;;;;;;22.80;49.30;;;;;;5049083;28;19919;-67
2021/12/21 12:30:09;;;;;;;;;;;22.80;49.20;;;;;;5042035;28;20008;-67
2021/12/21 12:32:39;;;;;;;;;;;22.80;49.70;;;;;;5038165;28;19982;-67
2021/12/21 12:35:12;;;;;;;;;;;22.80;49.30;;;;;;5037697;28;19955;-65
2021/12/21 12:37:51;;;;;;;;;;;22.80;49.20;;;;;;5036772;28;19920;-67
2021/12/21 12:40:18;;;;;;;;;;;22.80;49.20;;;;;;5039452;28;19919;-64
2021/12/21 12:42:53;;;;;;;;;;;22.80;49.10;;;;;;5029989;28;19957;-65
2021/12/21 12:45:20;;;;;;;;;;;22.80;49.10;;;;;;5034698;28;20524;-67
2021/12/21 12:47:47;;;;;;;;;;;22.80;49.00;;;;;;5039330;28;19913;-65
2021/12/21 12:50:17;;;;;;;;;;;22.80;49.10;;;;;;5039136;28;20009;-67
2021/12/21 12:52:55;;;;;;;;;;;22.80;49.00;;;;;;5034903;28;19912;-64
2021/12/21 12:55:21;;;;;;;;;;;22.80;49.00;;;;;;5039454;28;19913;-66
2021/12/21 12:58:00;;;;;;;;;;;22.80;49.10;;;;;;5039704;28;19939;-66
2021/12/21 13:00:27;;;;;;;;;;;22.90;49.10;;;;;;5038482;28;19920;-64
2021/12/21 13:02:57;;;;;;;;;;;22.90;49.00;;;;;;5042103;28;19919;-67
2021/12/21 13:05:35;;;;;;;;;;;22.90;49.00;;;;;;5041695;28;20400;-66
2021/12/21 13:08:07;;;;;;;;;;;22.90;49.00;;;;;;5036180;28;19955;-67
2021/12/21 13:10:34;;;;;;;;;;;22.90;49.00;;;;;;5042390;28;19916;-65
2021/12/21 13:13:00;;;;;;;;;;;22.90;49.00;;;;;;5038979;28;19913;-67
2021/12/21 13:15:36;;;;;;;;;;;22.90;49.00;;;;;;5040821;28;19960;-67
2021/12/21 13:18:03;;;;;;;;;;;22.90;49.00;;;;;;5042552;28;20030;-65
2021/12/21 13:20:29;;;;;;;;;;;22.90;49.10;;;;;;5043206;28;19912;-67
2021/12/21 13:22:54;;;;;;;;;;;22.90;49.10;;;;;;5040423;28;19923;-66
2021/12/21 13:25:20;;;;;;;;;;;22.90;49.10;;;;;;5043279;28;19917;-65
2021/12/21 13:27:45;;;;;;;;;;;22.90;49.10;;;;;;5040152;28;20002;-67
2021/12/21 13:30:11;;;;;;;;;;;22.90;49.00;;;;;;5040269;28;19909;-65
2021/12/21 13:32:37;;;;;;;;;;;22.90;49.00;;;;;;5036675;28;19984;-66
2021/12/21 13:35:02;;;;;;;;;;;22.90;49.00;;;;;;5043577;28;19935;-68
2021/12/21 13:37:29;;;;;;;;;;;22.90;49.50;;;;;;5039102;28;19925;-67
2021/12/21 13:39:57;;;;;;;;;;;22.90;49.00;;;;;;5038558;28;19917;-66
2021/12/21 13:42:24;;;;;;;;;;;23.00;49.00;;;;;;5043825;28;19982;-63
2021/12/21 13:44:49;;;;;;;;;;;23.00;49.40;;;;;;5039943;28;19913;-66
2021/12/21 13:47:36;;;;;;;;;;;23.00;49.00;;;;;;5042738;28;19978;-68
2021/12/21 13:50:05;;;;;;;;;;;23.00;49.00;;;;;;5040316;28;19909;-66
2021/12/21 13:52:32;;;;;;;;;;;23.00;48.90;;;;;;5039015;28;19958;-64
2021/12/21 13:54:58;;;;;;;;;;;23.00;48.90;;;;;;5039997;28;20062;-65
2021/12/21 13:57:25;;;;;;;;;;;23.00;49.00;;;;;;5041567;28;19913;-64
2021/12/21 13:59:52;;;;;;;;;;;23.00;48.90;;;;;;5037715;28;19952;-67
2021/12/21 14:02:30;;;;;;;;;;;23.00;48.70;;;;;;5040837;28;19921;-67
2021/12/21 14:05:01;;;;;;;;;;;22.90;48.70;;;;;;5031965;28;19921;-66
2021/12/21 14:07:31;;;;;;;;;;;22.90;48.70;;;;;;5034378;28;19962;-64
2021/12/21 14:10:04;;;;;;;;;;;23.00;48.80;;;;;;5041339;28;19908;-65
2021/12/21 14:12:29;;;;;;;;;;;22.90;48.80;;;;;;5039376;28;19912;-67
2021/12/21 14:14:55;;;;;;;;;;;22.90;48.70;;;;;;5037451;28;19916;-65
2021/12/21 14:17:20;;;;;;;;;;;22.90;48.70;;;;;;5041259;28;20536;-66
2021/12/21 14:19:54;;;;;;;;;;;22.90;48.70;;;;;;5040272;28;19919;-66
2021/12/21 14:22:20;;;;;;;;;;;23.00;48.80;;;;;;5038342;28;19912;-64
2021/12/21 14:24:48;;;;;;;;;;;23.00;48.90;;;;;;5043428;28;20015;-66
2021/12/21 14:27:14;;;;;;;;;;;23.00;48.80;;;;;;5044525;28;19955;-65
2021/12/21 14:29:42;;;;;;;;;;;23.00;48.80;;;;;;5039178;28;20090;-66
2021/12/21 14:34:36;;;;;;;;;;;22.90;48.80;;;;;;5037266;28;19919;-67
2021/12/21 14:37:05;;;;;;;;;;;22.90;48.70;;;;;;5032217;28;19909;-67
2021/12/21 14:39:31;;;;;;;;;;;22.90;48.80;;;;;;5044898;28;19911;-67
2021/12/21 14:41:59;;;;;;;;;;;22.90;48.70;;;;;;5041696;28;20454;-65
2021/12/21 14:44:25;;;;;;;;;;;22.90;48.70;;;;;;5043562;28;19913;-64
2021/12/21 14:46:51;;;;;;;;;;;22.90;48.80;;;;;;5043075;28;19928;-65
2021/12/21 14:49:22;;;;;;;;;;;22.90;48.80;;;;;;5045087;28;20033;-65
2021/12/21 14:51:51;;;;;;;;;;;22.90;48.80;;;;;;5040815;28;20468;-65
2021/12/21 14:54:25;;;;;;;;;;;22.90;48.80;;;;;;5042484;28;19917;-64
2021/12/21 14:56:51;;;;;;;;;;;22.90;48.90;;;;;;5040058;28;19913;-66
2021/12/21 14:59:17;;;;;;;;;;;22.90;48.80;;;;;;5043681;28;20663;-66
2021/12/21 15:01:44;;;;;;;;;;;22.90;48.90;;;;;;5037479;28;19921;-67
2021/12/21 15:04:14;;;;;;;;;;;22.90;48.90;;;;;;5041514;28;19958;-66
2021/12/21 15:06:39;;;;;;;;;;;22.90;48.90;;;;;;5039865;28;19923;-64
2021/12/21 15:09:05;;;;;;;;;;;22.90;49.00;;;;;;5040302;28;19928;-65
2021/12/21 15:11:30;;;;;;;;;;;22.90;48.90;;;;;;5041437;28;19920;-64
2021/12/21 15:13:56;;;;;;;;;;;22.90;48.90;;;;;;5042876;28;20426;-64
2021/12/21 15:16:21;;;;;;;;;;;22.90;48.90;;;;;;5042255;28;19967;-65
2021/12/21 15:18:47;;;;;;;;;;;22.90;48.90;;;;;;5042544;28;19909;-65
2021/12/21 15:21:12;;;;;;;;;;;22.90;49.00;;;;;;5034520;28;20012;-64
2021/12/21 15:23:38;;;;;;;;;;;22.90;48.90;;;;;;5043367;28;20027;-66
2021/12/21 15:26:03;;;;;;;;;;;22.90;49.00;;;;;;5040914;28;19935;-65
2021/12/21 15:28:29;;;;;;;;;;;22.90;49.00;;;;;;5039942;28;20023;-66
2021/12/21 15:30:54;;;;;;;;;;;22.90;49.10;;;;;;5037602;28;19920;-64
2021/12/21 15:33:20;;;;;;;;;;;22.90;49.00;;;;;;5037943;28;19912;-65